createdAt,value
2022-08-12T00:00:05.208Z,1020.53
2022-08-12T00:01:06.087Z,1020.54
2022-08-12T00:02:06.978Z,1020.57
2022-08-12T00:03:07.911Z,1020.57
2022-08-12T00:04:08.806Z,1020.55
2022-08-12T00:05:09.796Z,1020.55
2022-08-12T00:06:10.676Z,1020.54
2022-08-12T00:07:11.560Z,1020.55
2022-08-12T00:08:12.456Z,1020.53
2022-08-12T00:09:13.334Z,1020.53
2022-08-12T00:10:14.234Z,1020.51
2022-08-12T00:11:15.118Z,1020.49
2022-08-12T00:12:16.001Z,1020.50
2022-08-12T00:13:16.884Z,1020.48
2022-08-12T00:14:17.781Z,1020.46
2022-08-12T00:15:18.661Z,1020.46
2022-08-12T00:16:19.545Z,1020.46
2022-08-12T00:17:22.839Z,1020.43
2022-08-12T00:18:21.091Z,1020.44
2022-08-12T00:19:21.977Z,1020.43
2022-08-12T00:20:22.902Z,1020.44
2022-08-12T00:21:23.778Z,1020.43
2022-08-12T00:22:24.370Z,1020.42
2022-08-12T00:23:25.245Z,1020.44
2022-08-12T00:24:26.129Z,1020.44
2022-08-12T00:26:01.224Z,1020.41
2022-08-12T00:26:28.805Z,1020.41
2022-08-12T00:27:43.416Z,1020.45
2022-08-12T00:28:30.442Z,1020.46
2022-08-12T00:29:30.317Z,1020.44
2022-08-12T00:30:31.211Z,1020.44
2022-08-12T00:31:32.093Z,1020.43
2022-08-12T00:32:35.949Z,1020.44
2022-08-12T00:33:38.664Z,1020.43
2022-08-12T00:34:35.710Z,1020.44
2022-08-12T00:35:36.769Z,1020.47
2022-08-12T00:36:36.559Z,1020.46
2022-08-12T00:37:37.012Z,1020.46
2022-08-12T00:38:37.919Z,1020.45
2022-08-12T00:39:38.845Z,1020.41
2022-08-12T00:40:39.677Z,1020.41
2022-08-12T00:41:40.562Z,1020.41
2022-08-12T00:42:41.989Z,1020.39
2022-08-12T00:43:42.123Z,1020.39
2022-08-12T00:44:43.170Z,1020.36
2022-08-12T00:45:43.698Z,1020.36
2022-08-12T00:46:44.579Z,1020.35
2022-08-12T00:47:45.465Z,1020.34
2022-08-12T00:48:46.347Z,1020.31
2022-08-12T00:49:50.121Z,1020.32
2022-08-12T00:50:47.758Z,1020.32
2022-08-12T00:51:48.675Z,1020.33
2022-08-12T00:52:49.581Z,1020.32
2022-08-12T00:53:50.480Z,1020.33
2022-08-12T00:54:51.383Z,1020.34
2022-08-12T00:55:52.283Z,1020.37
2022-08-12T00:56:53.186Z,1020.36
2022-08-12T00:57:54.061Z,1020.36
2022-08-12T00:58:54.963Z,1020.34
2022-08-12T00:59:55.858Z,1020.35
2022-08-12T01:00:56.781Z,1020.35
2022-08-12T01:02:02.370Z,1020.33
2022-08-12T01:02:59.408Z,1020.32
2022-08-12T01:03:59.583Z,1020.31
2022-08-12T01:05:00.054Z,1020.30
2022-08-12T01:06:00.936Z,1020.28
2022-08-12T01:07:01.820Z,1020.31
2022-08-12T01:08:02.703Z,1020.32
2022-08-12T01:09:03.598Z,1020.32
2022-08-12T01:10:04.480Z,1020.30
2022-08-12T01:11:05.367Z,1020.32
2022-08-12T01:12:06.251Z,1020.32
2022-08-12T01:13:19.288Z,1020.32
2022-08-12T01:14:08.900Z,1020.34
2022-08-12T01:15:08.807Z,1020.35
2022-08-12T01:16:09.682Z,1020.34
2022-08-12T01:17:10.566Z,1020.34
2022-08-12T01:18:11.453Z,1020.34
2022-08-12T01:19:12.348Z,1020.36
2022-08-12T01:20:13.032Z,1020.36
2022-08-12T01:21:13.919Z,1020.33
2022-08-12T01:22:14.813Z,1020.34
2022-08-12T01:23:15.688Z,1020.33
2022-08-12T01:24:30.285Z,1020.35
2022-08-12T01:25:18.353Z,1020.34
2022-08-12T01:26:18.238Z,1020.36
2022-08-12T01:27:19.113Z,1020.34
2022-08-12T01:28:20.041Z,1020.31
2022-08-12T01:29:20.892Z,1020.32
2022-08-12T01:30:21.715Z,1020.31
2022-08-12T01:31:22.612Z,1020.27
2022-08-12T01:32:23.481Z,1020.26
2022-08-12T01:33:24.365Z,1020.22
2022-08-12T01:34:36.422Z,1020.22
2022-08-12T01:35:27.029Z,1020.18
2022-08-12T01:36:26.913Z,1020.19
2022-08-12T01:37:27.822Z,1020.20
2022-08-12T01:38:29.512Z,1020.20
2022-08-12T01:39:29.501Z,1020.21
2022-08-12T01:40:33.882Z,1020.21
2022-08-12T01:41:32.159Z,1020.19
2022-08-12T01:42:32.035Z,1020.20
2022-08-12T01:43:32.918Z,1020.22
2022-08-12T01:44:33.802Z,1020.24
2022-08-12T01:45:42.908Z,1020.26
2022-08-12T01:46:36.468Z,1020.27
2022-08-12T01:47:36.355Z,1020.27
2022-08-12T01:48:37.234Z,1020.27
2022-08-12T01:49:38.113Z,1020.27
2022-08-12T01:50:39.007Z,1020.25
2022-08-12T01:52:15.476Z,1020.23
2022-08-12T01:52:41.878Z,1020.23
2022-08-12T01:53:50.247Z,1020.22
2022-08-12T01:54:43.101Z,1020.22
2022-08-12T01:55:42.994Z,1020.23
2022-08-12T01:56:43.883Z,1020.22
2022-08-12T01:57:57.740Z,1020.22
2022-08-12T01:58:46.534Z,1020.21
2022-08-12T01:59:46.514Z,1020.21
2022-08-12T02:00:55.634Z,1020.21
2022-08-12T02:01:49.239Z,1020.22
2022-08-12T02:02:49.073Z,1020.22
2022-08-12T02:03:49.968Z,1020.21
2022-08-12T02:04:50.874Z,1020.19
2022-08-12T02:05:51.770Z,1020.16
2022-08-12T02:06:52.671Z,1020.14
2022-08-12T02:07:53.574Z,1020.12
2022-08-12T02:08:54.488Z,1020.12
2022-08-12T02:09:55.382Z,1020.08
2022-08-12T02:10:56.288Z,1020.05
2022-08-12T02:11:57.167Z,1020.01
2022-08-12T02:12:57.755Z,1019.98
2022-08-12T02:13:58.634Z,1019.95
2022-08-12T02:14:59.532Z,1019.93
2022-08-12T02:16:00.134Z,1019.88
2022-08-12T02:17:01.002Z,1019.88
2022-08-12T02:18:01.905Z,1019.85
2022-08-12T02:19:02.806Z,1019.84
2022-08-12T02:20:04.585Z,1019.84
2022-08-12T02:21:04.472Z,1019.82
2022-08-12T02:22:05.368Z,1019.84
2022-08-12T02:23:06.236Z,1019.83
2022-08-12T02:24:07.118Z,1019.79
2022-08-12T02:25:08.015Z,1019.78
2022-08-12T02:26:08.894Z,1019.74
2022-08-12T02:27:09.780Z,1019.71
2022-08-12T02:28:10.661Z,1019.69
2022-08-12T02:29:11.547Z,1019.69
2022-08-12T02:30:12.439Z,1019.69
2022-08-12T02:31:13.324Z,1019.70
2022-08-12T02:32:14.211Z,1019.71
2022-08-12T02:33:15.092Z,1019.72
2022-08-12T02:34:15.972Z,1019.74
2022-08-12T02:35:16.871Z,1019.74
2022-08-12T02:36:17.747Z,1019.76
2022-08-12T02:37:18.421Z,1019.79
2022-08-12T02:38:19.303Z,1019.82
2022-08-12T02:39:20.259Z,1019.83
2022-08-12T02:40:21.103Z,1019.83
2022-08-12T02:41:21.988Z,1019.83
2022-08-12T02:42:22.628Z,1019.82
2022-08-12T02:43:23.506Z,1019.80
2022-08-12T02:44:24.386Z,1019.80
2022-08-12T02:45:25.270Z,1019.81
2022-08-12T02:46:26.153Z,1019.80
2022-08-12T02:48:00.049Z,1019.82
2022-08-12T02:48:28.799Z,1019.84
2022-08-12T02:49:28.682Z,1019.85
2022-08-12T02:50:29.573Z,1019.84
2022-08-12T02:51:30.454Z,1019.82
2022-08-12T02:52:31.447Z,1019.81
2022-08-12T02:53:32.284Z,1019.78
2022-08-12T02:54:33.174Z,1019.77
2022-08-12T02:55:35.122Z,1019.78
2022-08-12T02:56:34.626Z,1019.76
2022-08-12T02:57:35.503Z,1019.76
2022-08-12T02:58:36.383Z,1019.74
2022-08-12T02:59:38.178Z,1019.73
2022-08-12T03:00:38.251Z,1019.74
2022-08-12T03:01:42.510Z,1019.73
2022-08-12T03:02:40.584Z,1019.71
2022-08-12T03:03:39.986Z,1019.70
2022-08-12T03:04:43.915Z,1019.69
2022-08-12T03:05:44.574Z,1019.66
2022-08-12T03:06:41.991Z,1019.67
2022-08-12T03:07:59.029Z,1019.65
2022-08-12T03:08:46.072Z,1019.66
2022-08-12T03:10:04.511Z,1019.66
2022-08-12T03:10:46.197Z,1019.64
2022-08-12T03:11:48.681Z,1019.67
2022-08-12T03:12:49.465Z,1019.67
2022-08-12T03:13:46.904Z,1019.66
2022-08-12T03:14:47.784Z,1019.66
2022-08-12T03:15:48.677Z,1019.67
2022-08-12T03:16:49.564Z,1019.67
2022-08-12T03:18:24.797Z,1019.64
2022-08-12T03:18:52.214Z,1019.63
2022-08-12T03:20:09.303Z,1019.64
2022-08-12T03:20:53.886Z,1019.62
2022-08-12T03:22:08.791Z,1019.62
2022-08-12T03:22:55.535Z,1019.62
2022-08-12T03:23:55.413Z,1019.61
2022-08-12T03:24:56.295Z,1019.60
2022-08-12T03:25:57.198Z,1019.58
2022-08-12T03:27:00.600Z,1019.57
2022-08-12T03:27:58.968Z,1019.58
2022-08-12T03:28:59.848Z,1019.55
2022-08-12T03:30:00.736Z,1019.56
2022-08-12T03:31:01.625Z,1019.56
2022-08-12T03:32:02.503Z,1019.59
2022-08-12T03:33:03.383Z,1019.58
2022-08-12T03:34:04.268Z,1019.58
2022-08-12T03:35:05.157Z,1019.59
2022-08-12T03:36:06.043Z,1019.59
2022-08-12T03:37:06.926Z,1019.59
2022-08-12T03:38:08.078Z,1019.58
2022-08-12T03:39:08.455Z,1019.59
2022-08-12T03:40:09.404Z,1019.58
2022-08-12T03:41:10.295Z,1019.61
2022-08-12T03:42:11.198Z,1019.63
2022-08-12T03:43:12.027Z,1019.61
2022-08-12T03:44:12.720Z,1019.63
2022-08-12T03:45:13.609Z,1019.64
2022-08-12T03:46:14.499Z,1019.65
2022-08-12T03:47:15.339Z,1019.62
2022-08-12T03:48:18.709Z,1019.63
2022-08-12T03:49:16.676Z,1019.63
2022-08-12T03:50:17.574Z,1019.65
2022-08-12T03:51:18.459Z,1019.65
2022-08-12T03:52:19.347Z,1019.65
2022-08-12T03:53:20.223Z,1019.67
2022-08-12T03:54:21.108Z,1019.70
2022-08-12T03:55:21.957Z,1019.71
2022-08-12T03:56:22.738Z,1019.69
2022-08-12T03:57:23.624Z,1019.69
2022-08-12T03:58:24.454Z,1019.71
2022-08-12T03:59:25.289Z,1019.72
2022-08-12T04:00:26.153Z,1019.72
2022-08-12T04:01:27.113Z,1019.72
2022-08-12T04:02:27.931Z,1019.71
2022-08-12T04:03:28.754Z,1019.73
2022-08-12T04:04:29.591Z,1019.73
2022-08-12T04:05:54.754Z,1019.74
2022-08-12T04:06:34.760Z,1019.76
2022-08-12T04:07:31.633Z,1019.75
2022-08-12T04:08:32.468Z,1019.77
2022-08-12T04:09:33.291Z,1019.75
2022-08-12T04:10:34.150Z,1019.75
2022-08-12T04:11:34.984Z,1019.76
2022-08-12T04:12:36.715Z,1019.77
2022-08-12T04:13:36.528Z,1019.77
2022-08-12T04:14:37.355Z,1019.74
2022-08-12T04:15:38.212Z,1019.74
2022-08-12T04:16:39.220Z,1019.72
2022-08-12T04:17:40.067Z,1019.70
2022-08-12T04:18:41.712Z,1019.68
2022-08-12T04:19:41.550Z,1019.68
2022-08-12T04:20:42.374Z,1019.70
2022-08-12T04:22:02.098Z,1019.70
2022-08-12T04:22:44.920Z,1019.70
2022-08-12T04:23:48.430Z,1019.68
2022-08-12T04:24:49.421Z,1019.70
2022-08-12T04:25:47.201Z,1019.69
2022-08-12T04:26:47.017Z,1019.71
2022-08-12T04:27:47.650Z,1019.71
2022-08-12T04:28:48.478Z,1019.69
2022-08-12T04:30:29.821Z,1019.69
2022-08-12T04:30:51.052Z,1019.69
2022-08-12T04:31:50.883Z,1019.69
2022-08-12T04:32:51.975Z,1019.71
2022-08-12T04:33:52.325Z,1019.69
2022-08-12T04:34:53.163Z,1019.69
2022-08-12T04:35:54.007Z,1019.68
2022-08-12T04:36:54.823Z,1019.66
2022-08-12T04:37:58.486Z,1019.67
2022-08-12T04:38:59.684Z,1019.66
2022-08-12T04:39:57.197Z,1019.65
2022-08-12T04:40:58.010Z,1019.66
2022-08-12T04:41:58.932Z,1019.64
2022-08-12T04:42:59.702Z,1019.65
2022-08-12T04:44:02.577Z,1019.64
2022-08-12T04:45:01.481Z,1019.65
2022-08-12T04:46:02.321Z,1019.64
2022-08-12T04:47:03.150Z,1019.62
2022-08-12T04:48:03.989Z,1019.62
2022-08-12T04:49:04.808Z,1019.62
2022-08-12T04:50:05.627Z,1019.63
2022-08-12T04:51:07.350Z,1019.65
2022-08-12T04:52:07.180Z,1019.65
2022-08-12T04:53:08.681Z,1019.67
2022-08-12T04:54:08.690Z,1019.65
2022-08-12T04:55:09.526Z,1019.65
2022-08-12T04:56:10.357Z,1019.64
2022-08-12T04:57:11.187Z,1019.65
2022-08-12T04:58:12.006Z,1019.64
2022-08-12T04:59:12.516Z,1019.64
2022-08-12T05:00:13.382Z,1019.68
2022-08-12T05:01:14.199Z,1019.68
2022-08-12T05:02:16.931Z,1019.69
2022-08-12T05:03:16.742Z,1019.71
2022-08-12T05:04:16.573Z,1019.72
2022-08-12T05:05:17.413Z,1019.71
2022-08-12T05:06:26.679Z,1019.71
2022-08-12T05:07:19.947Z,1019.71
2022-08-12T05:08:19.778Z,1019.69
2022-08-12T05:09:20.604Z,1019.69
2022-08-12T05:10:21.204Z,1019.69
2022-08-12T05:11:22.929Z,1019.69
2022-08-12T05:12:22.762Z,1019.71
2022-08-12T05:13:23.579Z,1019.73
2022-08-12T05:14:24.411Z,1019.73
2022-08-12T05:15:29.540Z,1019.75
2022-08-12T05:16:27.221Z,1019.76
2022-08-12T05:17:28.173Z,1019.77
2022-08-12T05:18:29.057Z,1019.77
2022-08-12T05:19:27.806Z,1019.78
2022-08-12T05:20:29.752Z,1019.79
2022-08-12T05:21:29.116Z,1019.80
2022-08-12T05:22:29.950Z,1019.80
2022-08-12T05:23:30.778Z,1019.78
2022-08-12T05:24:31.613Z,1019.81
2022-08-12T05:25:32.437Z,1019.80
2022-08-12T05:26:33.269Z,1019.80
2022-08-12T05:27:34.096Z,1019.84
2022-08-12T05:28:34.917Z,1019.85
2022-08-12T05:30:06.407Z,1019.87
2022-08-12T05:30:37.490Z,1019.91
2022-08-12T05:31:42.328Z,1019.90
2022-08-12T05:32:39.171Z,1019.89
2022-08-12T05:33:38.522Z,1019.88
2022-08-12T05:34:39.343Z,1019.90
2022-08-12T05:35:40.182Z,1019.90
2022-08-12T05:36:41.018Z,1019.91
2022-08-12T05:37:41.841Z,1019.90
2022-08-12T05:38:42.453Z,1019.90
2022-08-12T05:39:43.375Z,1019.92
2022-08-12T05:40:44.201Z,1019.92
2022-08-12T05:41:45.031Z,1019.94
2022-08-12T05:42:46.156Z,1019.91
2022-08-12T05:43:46.692Z,1019.90
2022-08-12T05:44:47.593Z,1019.87
2022-08-12T05:45:48.431Z,1019.87
2022-08-12T05:46:49.251Z,1019.87
2022-08-12T05:47:54.027Z,1019.87
2022-08-12T05:48:50.657Z,1019.89
2022-08-12T05:49:51.474Z,1019.89
2022-08-12T05:50:52.304Z,1019.87
2022-08-12T05:51:53.134Z,1019.91
2022-08-12T05:52:54.111Z,1019.88
2022-08-12T05:53:54.879Z,1019.90
2022-08-12T05:54:57.753Z,1019.88
2022-08-12T05:55:56.292Z,1019.84
2022-08-12T05:56:57.144Z,1019.84
2022-08-12T05:57:57.971Z,1019.81
2022-08-12T05:58:58.791Z,1019.79
2022-08-12T05:59:59.621Z,1019.79
2022-08-12T06:01:00.473Z,1019.76
2022-08-12T06:02:09.457Z,1019.77
2022-08-12T06:03:03.012Z,1019.78
2022-08-12T06:04:02.859Z,1019.77
2022-08-12T06:05:03.688Z,1019.77
2022-08-12T06:06:04.528Z,1019.81
2022-08-12T06:07:40.740Z,1019.79
2022-08-12T06:08:07.081Z,1019.81
2022-08-12T06:09:06.903Z,1019.80
2022-08-12T06:10:07.577Z,1019.81
2022-08-12T06:11:08.416Z,1019.80
2022-08-12T06:12:09.246Z,1019.80
2022-08-12T06:13:10.064Z,1019.80
2022-08-12T06:14:11.716Z,1019.79
2022-08-12T06:15:11.536Z,1019.79
2022-08-12T06:16:12.373Z,1019.78
2022-08-12T06:17:13.193Z,1019.78
2022-08-12T06:18:16.354Z,1019.76
2022-08-12T06:19:14.774Z,1019.76
2022-08-12T06:20:27.695Z,1019.75
2022-08-12T06:21:17.329Z,1019.73
2022-08-12T06:22:17.156Z,1019.76
2022-08-12T06:23:17.976Z,1019.75
2022-08-12T06:24:18.806Z,1019.74
2022-08-12T06:25:22.012Z,1019.74
2022-08-12T06:26:20.552Z,1019.75
2022-08-12T06:27:21.377Z,1019.73
2022-08-12T06:28:22.202Z,1019.76
2022-08-12T06:30:06.538Z,1019.74
2022-08-12T06:30:36.896Z,1019.74
2022-08-12T06:31:27.029Z,1019.74
2022-08-12T06:32:27.677Z,1019.74
2022-08-12T06:33:57.762Z,1019.76
2022-08-12T06:35:22.581Z,1019.77
2022-08-12T06:35:47.559Z,1019.77
2022-08-12T06:36:29.657Z,1019.76
2022-08-12T06:37:28.724Z,1019.73
2022-08-12T06:38:29.554Z,1019.74
2022-08-12T06:39:30.583Z,1019.73
2022-08-12T06:40:30.883Z,1019.73
2022-08-12T06:41:31.411Z,1019.74
2022-08-12T06:42:33.554Z,1019.72
2022-08-12T06:44:04.646Z,1019.70
2022-08-12T06:44:34.632Z,1019.68
2022-08-12T06:45:46.264Z,1019.65
2022-08-12T06:46:36.186Z,1019.66
2022-08-12T06:47:36.007Z,1019.67
2022-08-12T06:48:36.842Z,1019.68
2022-08-12T06:49:37.680Z,1019.71
2022-08-12T06:50:40.206Z,1019.71
2022-08-12T06:51:39.191Z,1019.70
2022-08-12T06:52:40.152Z,1019.69
2022-08-12T06:53:40.549Z,1019.69
2022-08-12T06:54:41.378Z,1019.67
2022-08-12T06:55:58.428Z,1019.66
2022-08-12T06:57:03.775Z,1019.66
2022-08-12T06:58:01.804Z,1019.66
2022-08-12T06:58:45.369Z,1019.65
2022-08-12T06:59:45.207Z,1019.65
2022-08-12T07:00:46.100Z,1019.61
2022-08-12T07:01:51.086Z,1019.60
2022-08-12T07:02:47.712Z,1019.59
2022-08-12T07:03:48.547Z,1019.59
2022-08-12T07:04:49.375Z,1019.60
2022-08-12T07:05:50.933Z,1019.58
2022-08-12T07:06:50.870Z,1019.52
2022-08-12T07:07:51.698Z,1019.47
2022-08-12T07:08:52.531Z,1019.47
2022-08-12T07:10:03.854Z,1019.45
2022-08-12T07:10:55.078Z,1019.49
2022-08-12T07:11:54.915Z,1019.51
2022-08-12T07:12:55.751Z,1019.51
2022-08-12T07:14:12.727Z,1019.54
2022-08-12T07:14:58.376Z,1019.55
2022-08-12T07:15:58.200Z,1019.57
2022-08-12T07:16:59.033Z,1019.51
2022-08-12T07:17:59.863Z,1019.53
2022-08-12T07:19:00.692Z,1019.51
2022-08-12T07:20:04.506Z,1019.52
2022-08-12T07:21:02.100Z,1019.54
2022-08-12T07:22:02.996Z,1019.50
2022-08-12T07:23:03.784Z,1019.46
2022-08-12T07:24:04.655Z,1019.47
2022-08-12T07:25:05.447Z,1019.50
2022-08-12T07:26:06.258Z,1019.45
2022-08-12T07:27:07.097Z,1019.45
2022-08-12T07:28:14.121Z,1019.42
2022-08-12T07:29:09.642Z,1019.40
2022-08-12T07:30:09.470Z,1019.37
2022-08-12T07:31:10.299Z,1019.35
2022-08-12T07:32:11.141Z,1019.31
2022-08-12T07:33:11.968Z,1019.34
2022-08-12T07:34:12.813Z,1019.36
2022-08-12T07:35:13.631Z,1019.31
2022-08-12T07:36:14.447Z,1019.34
2022-08-12T07:37:15.288Z,1019.30
2022-08-12T07:38:16.118Z,1019.34
2022-08-12T07:39:17.861Z,1019.34
2022-08-12T07:40:17.702Z,1019.35
2022-08-12T07:41:18.494Z,1019.35
2022-08-12T07:42:19.334Z,1019.33
2022-08-12T07:43:20.168Z,1019.30
2022-08-12T07:44:20.993Z,1019.31
2022-08-12T07:45:21.828Z,1019.34
2022-08-12T07:46:22.652Z,1019.31
2022-08-12T07:47:23.495Z,1019.31
2022-08-12T07:48:24.333Z,1019.32
2022-08-12T07:49:25.152Z,1019.31
2022-08-12T07:50:26.014Z,1019.31
2022-08-12T07:51:26.812Z,1019.32
2022-08-12T07:52:27.651Z,1019.27
2022-08-12T07:53:28.480Z,1019.23
2022-08-12T07:54:29.302Z,1019.20
2022-08-12T07:55:30.132Z,1019.21
2022-08-12T07:56:30.959Z,1019.21
2022-08-12T07:57:31.801Z,1019.19
2022-08-12T07:58:32.633Z,1019.19
2022-08-12T07:59:33.370Z,1019.18
2022-08-12T08:00:34.204Z,1019.22
2022-08-12T08:01:35.082Z,1019.23
2022-08-12T08:02:35.947Z,1019.26
2022-08-12T08:03:36.783Z,1019.24
2022-08-12T08:04:38.495Z,1019.20
2022-08-12T08:05:38.323Z,1019.17
2022-08-12T08:06:39.162Z,1019.17
2022-08-12T08:07:39.991Z,1019.14
2022-08-12T08:08:40.821Z,1019.16
2022-08-12T08:09:41.760Z,1019.17
2022-08-12T08:10:42.587Z,1019.16
2022-08-12T08:11:43.414Z,1019.16
2022-08-12T08:12:44.256Z,1019.15
2022-08-12T08:13:45.089Z,1019.14
2022-08-12T08:14:45.918Z,1019.14
2022-08-12T08:16:02.585Z,1019.09
2022-08-12T08:16:48.306Z,1019.08
2022-08-12T08:17:48.147Z,1019.06
2022-08-12T08:18:48.975Z,1019.07
2022-08-12T08:20:03.886Z,1019.07
2022-08-12T08:20:51.519Z,1019.05
2022-08-12T08:21:51.353Z,1019.10
2022-08-12T08:22:52.370Z,1019.06
2022-08-12T08:23:55.683Z,1019.08
2022-08-12T08:24:53.653Z,1019.10
2022-08-12T08:25:54.481Z,1019.13
2022-08-12T08:26:55.311Z,1019.11
2022-08-12T08:27:56.151Z,1019.10
2022-08-12T08:28:57.090Z,1019.14
2022-08-12T08:29:57.873Z,1019.13
2022-08-12T08:30:58.702Z,1019.15
2022-08-12T08:31:59.537Z,1019.12
2022-08-12T08:33:00.372Z,1019.11
2022-08-12T08:34:27.631Z,1019.14
2022-08-12T08:35:02.955Z,1019.20
2022-08-12T08:36:02.961Z,1019.21
2022-08-12T08:37:04.718Z,1019.20
2022-08-12T08:38:04.159Z,1019.17
2022-08-12T08:39:04.658Z,1019.16
2022-08-12T08:40:05.489Z,1019.14
2022-08-12T08:41:06.319Z,1019.13
2022-08-12T08:42:17.882Z,1019.15
2022-08-12T08:43:08.875Z,1019.12
2022-08-12T08:44:08.708Z,1019.12
2022-08-12T08:45:09.535Z,1019.10
2022-08-12T08:46:10.366Z,1019.10
2022-08-12T08:47:11.202Z,1019.12
2022-08-12T08:48:12.036Z,1019.09
2022-08-12T08:49:12.879Z,1019.10
2022-08-12T08:50:13.700Z,1019.10
2022-08-12T08:51:14.538Z,1019.11
2022-08-12T08:52:40.330Z,1019.12
2022-08-12T08:53:17.085Z,1019.15
2022-08-12T08:54:16.916Z,1019.15
2022-08-12T08:55:22.168Z,1019.15
2022-08-12T08:56:19.464Z,1019.13
2022-08-12T08:57:19.291Z,1019.14
2022-08-12T08:58:20.132Z,1019.14
2022-08-12T08:59:20.960Z,1019.16
2022-08-12T09:00:21.799Z,1019.14
2022-08-12T09:01:22.709Z,1019.11
2022-08-12T09:02:23.559Z,1019.10
2022-08-12T09:05:09.196Z,1019.09
2022-08-12T09:05:26.481Z,1019.04
2022-08-12T09:06:37.156Z,1019.05
2022-08-12T09:07:51.253Z,1019.07
2022-08-12T09:08:28.875Z,1019.05
2022-08-12T09:10:02.882Z,1019.08
2022-08-12T09:12:31.550Z,1019.08
2022-08-12T09:14:10.572Z,1019.10
2022-08-12T09:14:32.846Z,1019.07
2022-08-12T09:15:35.650Z,1019.07
2022-08-12T09:16:37.906Z,1019.07
2022-08-12T09:18:35.791Z,1019.06
2022-08-12T09:19:35.521Z,1019.03
2022-08-12T09:20:36.350Z,1019.01
2022-08-12T09:21:54.181Z,1018.97
2022-08-12T09:22:38.947Z,1018.97
2022-08-12T09:24:40.492Z,1018.95
2022-08-12T09:25:40.420Z,1018.94
2022-08-12T09:26:46.633Z,1018.97
2022-08-12T09:28:03.246Z,1018.99
2022-08-12T09:28:43.518Z,1018.99
2022-08-12T09:30:11.152Z,1018.98
2022-08-12T09:30:44.961Z,1018.98
2022-08-12T09:32:03.216Z,1018.98
2022-08-12T09:33:03.846Z,1018.95
2022-08-12T09:34:28.085Z,1018.95
2022-08-12T09:34:50.741Z,1018.95
2022-08-12T09:36:03.153Z,1018.93
2022-08-12T09:37:00.635Z,1018.92
2022-08-12T09:37:57.835Z,1018.94
2022-08-12T09:38:58.954Z,1018.92
2022-08-12T09:40:05.115Z,1018.93
2022-08-12T09:40:57.333Z,1018.88
2022-08-12T09:42:10.039Z,1018.84
2022-08-12T09:43:15.455Z,1018.83
2022-08-12T09:44:00.839Z,1018.86
2022-08-12T09:45:18.090Z,1018.84
2022-08-12T09:46:12.117Z,1018.83
2022-08-12T09:46:56.664Z,1018.88
2022-08-12T09:47:59.403Z,1018.89
2022-08-12T09:48:57.378Z,1018.89
2022-08-12T09:49:58.660Z,1018.91
2022-08-12T09:50:58.626Z,1018.88
2022-08-12T09:51:58.893Z,1018.89
2022-08-12T09:53:03.835Z,1018.93
2022-08-12T09:54:08.426Z,1018.88
2022-08-12T09:55:02.667Z,1018.89
2022-08-12T09:56:39.718Z,1018.91
2022-08-12T09:58:46.195Z,1018.95
2022-08-12T09:58:46.213Z,1018.92
2022-08-12T09:59:05.118Z,1018.94
2022-08-12T10:00:15.279Z,1018.92
2022-08-12T10:01:15.367Z,1018.93
2022-08-12T10:02:45.432Z,1018.94
2022-08-12T10:03:08.134Z,1018.93
2022-08-12T10:04:08.882Z,1018.90
2022-08-12T10:05:09.287Z,1018.91
2022-08-12T10:06:27.298Z,1018.89
2022-08-12T10:07:20.414Z,1018.90
2022-08-12T10:08:11.770Z,1018.90
2022-08-12T10:09:11.599Z,1018.90
2022-08-12T10:10:22.329Z,1018.87
2022-08-12T10:11:18.694Z,1018.84
2022-08-12T10:12:14.711Z,1018.78
2022-08-12T10:13:16.840Z,1018.81
2022-08-12T10:14:16.196Z,1018.80
2022-08-12T10:16:02.308Z,1018.80
2022-08-12T10:16:22.148Z,1018.78
2022-08-12T10:17:18.506Z,1018.80
2022-08-12T10:18:18.349Z,1018.77
2022-08-12T10:19:19.205Z,1018.76
2022-08-12T10:20:20.028Z,1018.74
2022-08-12T10:21:20.858Z,1018.78
2022-08-12T10:22:40.487Z,1018.76
2022-08-12T10:23:39.867Z,1018.77
2022-08-12T10:24:23.971Z,1018.74
2022-08-12T10:25:23.803Z,1018.74
2022-08-12T10:26:38.604Z,1018.71
2022-08-12T10:27:26.232Z,1018.73
2022-08-12T10:28:26.959Z,1018.73
2022-08-12T10:30:37.613Z,1018.75
2022-08-12T10:30:41.983Z,1018.78
2022-08-12T10:31:29.214Z,1018.79
2022-08-12T10:32:45.021Z,1018.78
2022-08-12T10:33:32.149Z,1018.75
2022-08-12T10:34:30.635Z,1018.77
2022-08-12T10:35:31.440Z,1018.80
2022-08-12T10:36:40.462Z,1018.82
2022-08-12T10:38:33.381Z,1018.81
2022-08-12T10:38:43.864Z,1018.79
2022-08-12T10:40:01.441Z,1018.79
2022-08-12T10:40:37.854Z,1018.75
2022-08-12T10:41:58.339Z,1018.74
2022-08-12T10:42:37.506Z,1018.72
2022-08-12T10:43:55.027Z,1018.74
2022-08-12T10:44:39.070Z,1018.74
2022-08-12T10:45:38.970Z,1018.73
2022-08-12T10:46:39.709Z,1018.71
2022-08-12T10:48:19.424Z,1018.70
2022-08-12T10:48:42.170Z,1018.68
2022-08-12T10:50:02.280Z,1018.67
2022-08-12T10:50:58.362Z,1018.66
2022-08-12T10:52:04.229Z,1018.68
2022-08-12T10:52:45.544Z,1018.69
2022-08-12T10:53:46.779Z,1018.70
2022-08-12T10:54:45.689Z,1018.66
2022-08-12T10:55:46.286Z,1018.66
2022-08-12T10:56:47.114Z,1018.69
2022-08-12T10:58:27.252Z,1018.68
2022-08-12T10:58:49.818Z,1018.67
2022-08-12T11:00:32.505Z,1018.68
2022-08-12T11:01:25.797Z,1018.69
2022-08-12T11:04:20.741Z,1018.68
2022-08-12T11:04:23.649Z,1018.67
2022-08-12T11:04:25.352Z,1018.70
2022-08-12T11:04:54.869Z,1018.65
2022-08-12T11:07:06.191Z,1018.66
2022-08-12T11:07:08.264Z,1018.65
2022-08-12T11:08:37.147Z,1018.68
2022-08-12T11:08:57.303Z,1018.67
2022-08-12T11:10:01.512Z,1018.66
2022-08-12T11:10:58.845Z,1018.65
2022-08-12T11:12:34.838Z,1018.61
2022-08-12T11:13:00.782Z,1018.59
2022-08-12T11:14:00.692Z,1018.58
2022-08-12T11:15:01.070Z,1018.55
2022-08-12T11:16:19.615Z,1018.55
2022-08-12T11:17:34.562Z,1018.52
2022-08-12T11:18:04.221Z,1018.54
2022-08-12T11:19:05.459Z,1018.55
2022-08-12T11:20:04.973Z,1018.56
2022-08-12T11:21:05.939Z,1018.55
2022-08-12T11:22:06.702Z,1018.56
2022-08-12T11:23:24.579Z,1018.57
2022-08-12T11:24:30.561Z,1018.53
2022-08-12T11:25:10.239Z,1018.54
2022-08-12T11:26:09.518Z,1018.53
2022-08-12T11:27:11.252Z,1018.56
2022-08-12T11:28:10.987Z,1018.53
2022-08-12T11:29:22.123Z,1018.56
2022-08-12T11:30:31.069Z,1018.55
2022-08-12T11:31:14.743Z,1018.56
2022-08-12T11:32:14.007Z,1018.59
2022-08-12T11:33:24.414Z,1018.59
2022-08-12T11:34:53.001Z,1018.63
2022-08-12T11:35:17.244Z,1018.62
2022-08-12T11:36:17.101Z,1018.62
2022-08-12T11:37:25.968Z,1018.69
2022-08-12T11:38:20.416Z,1018.65
2022-08-12T11:39:42.361Z,1018.64
2022-08-12T11:40:21.004Z,1018.63
2022-08-12T11:41:31.877Z,1018.63
2022-08-12T11:42:32.156Z,1018.61
2022-08-12T11:43:23.266Z,1018.60
2022-08-12T11:44:36.145Z,1018.63
2022-08-12T11:45:24.518Z,1018.63
2022-08-12T11:46:24.348Z,1018.63
2022-08-12T11:47:25.179Z,1018.61
2022-08-12T11:48:26.894Z,1018.64
2022-08-12T11:49:31.016Z,1018.64
2022-08-12T11:50:32.390Z,1018.62
2022-08-12T11:51:27.841Z,1018.62
2022-08-12T11:52:55.042Z,1018.59
2022-08-12T11:53:57.032Z,1018.62
2022-08-12T11:54:31.203Z,1018.62
2022-08-12T11:55:30.530Z,1018.58
2022-08-12T11:56:38.518Z,1018.57
2022-08-12T11:58:08.122Z,1018.57
2022-08-12T12:00:16.845Z,1018.54
2022-08-12T12:02:03.197Z,1018.61
2022-08-12T12:02:36.733Z,1018.58
2022-08-12T12:03:40.445Z,1018.57
2022-08-12T12:04:38.261Z,1018.58
2022-08-12T12:05:41.905Z,1018.59
2022-08-12T12:06:39.804Z,1018.60
2022-08-12T12:08:38.800Z,1018.58
2022-08-12T12:08:44.035Z,1018.58
2022-08-12T12:09:52.314Z,1018.57
2022-08-12T12:10:42.675Z,1018.53
2022-08-12T12:11:48.932Z,1018.53
2022-08-12T12:12:50.286Z,1018.47
2022-08-12T12:14:07.501Z,1018.51
2022-08-12T12:14:45.783Z,1018.53
2022-08-12T12:15:47.411Z,1018.55
2022-08-12T12:16:50.018Z,1018.54
2022-08-12T12:17:47.021Z,1018.52
2022-08-12T12:18:47.852Z,1018.48
2022-08-12T12:19:48.635Z,1018.48
2022-08-12T12:20:49.464Z,1018.44
2022-08-12T12:21:50.305Z,1018.44